Terminal Aerodrome Forecast
Issued by NWS Twin Cities, MN

Home | Current Version | Previous Version | Graphics & Text | Print | Product List | Glossary On
Versions: 1 2 3 4 5 6 7 8 9 10 11 12 13 14 15 16 17 18
000
FTUS43 KMPX 151700
TAFEAU
TAF
KEAU 151727Z 1518/1618 30008KT P6SM BKN035
     FM152300 24006KT P6SM BKN150
     FM160500 11005KT P6SM OVC060
     FM161200 10015G25KT P6SM VCSH OVC025=

USA.gov is the U.S. government's official web portal to all federal, state and local government web resources and services.